createdAt,value
2017-07-20T00:01:51.913Z,13.25
2017-07-20T00:04:19.757Z,13.85
2017-07-20T00:06:48.293Z,14.35
2017-07-20T00:09:16.100Z,14.65
2017-07-20T00:11:43.858Z,14.85
2017-07-20T00:14:12.384Z,13.95
2017-07-20T00:16:40.173Z,15.82
2017-07-20T00:19:07.929Z,15.55
2017-07-20T00:21:35.748Z,14.18
2017-07-20T00:24:03.504Z,15.32
2017-07-20T00:26:31.259Z,14.95
2017-07-20T00:28:59.058Z,15.25
2017-07-20T00:31:26.816Z,14.00
2017-07-20T00:33:54.626Z,16.70
2017-07-20T00:36:23.142Z,14.73
2017-07-20T00:38:50.901Z,14.82
2017-07-20T00:41:18.685Z,15.32
2017-07-20T00:43:46.456Z,14.90
2017-07-20T00:46:14.264Z,15.07
2017-07-20T00:48:42.016Z,14.85
2017-07-20T00:51:10.528Z,14.80
2017-07-20T00:53:38.318Z,15.55
2017-07-20T00:56:06.070Z,16.35
2017-07-20T00:58:33.880Z,14.82
2017-07-20T01:01:02.397Z,15.57
2017-07-20T01:03:30.152Z,15.38
2017-07-20T01:05:57.943Z,16.30
2017-07-20T01:08:25.692Z,17.65
2017-07-20T01:10:53.504Z,17.23
2017-07-20T01:13:22.028Z,15.07
2017-07-20T01:15:49.779Z,16.20
2017-07-20T01:18:17.572Z,15.90
2017-07-20T01:20:45.324Z,16.98
2017-07-20T01:23:13.135Z,16.25
2017-07-20T01:25:40.885Z,16.37
2017-07-20T01:28:08.636Z,16.00
2017-07-20T01:30:36.426Z,16.05
2017-07-20T01:33:04.192Z,15.95
2017-07-20T01:35:32.002Z,16.92
2017-07-20T01:37:59.777Z,15.93
2017-07-20T01:40:27.541Z,17.15
2017-07-20T01:42:55.323Z,16.15
2017-07-20T01:45:23.859Z,17.12
2017-07-20T01:47:51.701Z,17.40
2017-07-20T01:50:19.455Z,18.42
2017-07-20T01:52:47.203Z,15.82
2017-07-20T01:55:15.003Z,17.55
2017-07-20T01:57:42.758Z,18.30
2017-07-20T02:00:10.580Z,17.05
2017-07-20T02:02:39.121Z,17.23
2017-07-20T02:05:06.911Z,16.67
2017-07-20T02:07:35.459Z,16.55
2017-07-20T02:10:03.214Z,16.80
2017-07-20T02:12:31.027Z,17.10
2017-07-20T02:14:59.546Z,17.10
2017-07-20T02:17:27.300Z,17.40
2017-07-20T02:19:55.112Z,17.80
2017-07-20T02:22:22.863Z,17.73
2017-07-20T02:24:50.676Z,18.92
2017-07-20T02:27:18.422Z,19.30
2017-07-20T02:29:46.171Z,17.33
2017-07-20T02:32:14.859Z,19.87
2017-07-20T02:34:42.613Z,18.17
2017-07-20T02:37:11.184Z,18.37
2017-07-20T02:39:38.942Z,19.05
2017-07-20T02:42:07.468Z,20.33
2017-07-20T02:44:35.256Z,19.02
2017-07-20T02:47:03.000Z,19.73
2017-07-20T02:49:30.818Z,18.83
2017-07-20T02:51:58.569Z,19.30
2017-07-20T02:54:26.311Z,19.58
2017-07-20T02:56:54.091Z,18.12
2017-07-20T02:59:21.856Z,18.17
2017-07-20T03:01:49.664Z,19.25
2017-07-20T03:04:17.420Z,19.48
2017-07-20T03:06:45.176Z,18.87
2017-07-20T03:09:12.975Z,20.35
2017-07-20T03:11:40.725Z,18.70
2017-07-20T03:14:08.541Z,19.67
2017-07-20T03:16:37.059Z,22.62
2017-07-20T03:19:04.817Z,22.27
2017-07-20T03:21:32.673Z,22.42
2017-07-20T03:24:00.434Z,19.55
2017-07-20T03:26:28.446Z,20.85
2017-07-20T03:28:56.196Z,19.35
2017-07-20T03:31:23.952Z,20.52
2017-07-20T03:33:51.736Z,20.27
2017-07-20T03:36:19.503Z,19.85
2017-07-20T03:38:48.093Z,18.25
2017-07-20T03:41:16.611Z,18.05
2017-07-20T03:43:44.368Z,17.02
2017-07-20T03:46:12.161Z,16.23
2017-07-20T03:48:39.925Z,15.75
2017-07-20T03:51:07.744Z,17.27
2017-07-20T03:53:35.517Z,17.02
2017-07-20T03:56:03.276Z,18.90
2017-07-20T03:58:31.073Z,16.70
2017-07-20T04:00:58.829Z,16.52
2017-07-20T04:03:26.647Z,17.42
2017-07-20T04:05:54.399Z,18.08
2017-07-20T04:08:22.921Z,17.80
2017-07-20T04:10:50.710Z,15.18
2017-07-20T04:13:18.473Z,15.40
2017-07-20T04:15:46.290Z,19.60
2017-07-20T04:18:14.053Z,16.10
2017-07-20T04:20:41.814Z,15.35
2017-07-20T04:23:09.607Z,13.95
2017-07-20T04:25:37.395Z,14.55
2017-07-20T04:28:05.200Z,13.15
2017-07-20T04:30:32.954Z,14.45
2017-07-20T04:33:00.721Z,16.58
2017-07-20T04:35:28.505Z,15.07
2017-07-20T04:37:56.289Z,16.17
2017-07-20T04:40:24.115Z,15.90
2017-07-20T04:42:51.873Z,17.05
2017-07-20T04:45:19.673Z,16.35
2017-07-20T04:47:48.638Z,15.88
2017-07-20T04:50:17.229Z,15.60
2017-07-20T04:52:45.032Z,16.23
2017-07-20T04:55:12.785Z,15.35
2017-07-20T04:57:40.539Z,14.73
2017-07-20T05:00:09.142Z,15.05
2017-07-20T05:02:36.913Z,14.80
2017-07-20T05:05:04.722Z,15.70
2017-07-20T05:07:32.788Z,15.40
2017-07-20T05:10:00.557Z,13.40
2017-07-20T05:12:28.343Z,14.63
2017-07-20T05:14:56.099Z,15.00
2017-07-20T05:17:23.912Z,14.93
2017-07-20T05:19:51.670Z,14.30
2017-07-20T05:22:19.416Z,14.73
2017-07-20T05:24:47.483Z,12.95
2017-07-20T05:27:15.936Z,13.95
2017-07-20T05:29:44.526Z,13.02
2017-07-20T05:32:12.303Z,12.93
2017-07-20T05:34:40.063Z,13.60
2017-07-20T05:37:07.861Z,13.40
2017-07-20T05:39:35.620Z,10.40
2017-07-20T05:42:03.458Z,11.77
2017-07-20T05:44:32.129Z,10.70
2017-07-20T05:47:00.645Z,12.40
2017-07-20T05:49:28.438Z,11.30
2017-07-20T05:51:56.198Z,12.63
2017-07-20T05:54:24.023Z,14.40
2017-07-20T05:56:51.789Z,12.77
2017-07-20T05:59:19.556Z,10.53
2017-07-20T06:01:47.415Z,10.20
2017-07-20T06:04:15.160Z,9.40
2017-07-20T06:06:43.009Z,7.87
2017-07-20T06:09:10.781Z,8.27
2017-07-20T06:11:38.572Z,8.40
2017-07-20T06:14:06.369Z,8.20
2017-07-20T06:16:34.132Z,9.13
2017-07-20T06:19:01.953Z,8.80
2017-07-20T06:21:29.726Z,8.63
2017-07-20T06:23:57.485Z,9.80
2017-07-20T06:26:25.274Z,8.70
2017-07-20T06:28:53.033Z,8.50
2017-07-20T06:31:20.833Z,8.20
2017-07-20T06:33:48.600Z,9.90
2017-07-20T06:36:16.402Z,9.13
2017-07-20T06:38:44.179Z,9.13
2017-07-20T06:41:11.936Z,8.10
2017-07-20T06:43:39.786Z,8.73
2017-07-20T06:46:07.536Z,7.60
2017-07-20T06:48:35.292Z,9.13
2017-07-20T06:51:03.077Z,9.17
2017-07-20T06:53:30.825Z,8.90
2017-07-20T06:55:58.625Z,7.63
2017-07-20T06:58:26.385Z,7.80
2017-07-20T07:00:54.890Z,7.27
2017-07-20T07:03:22.665Z,8.20
2017-07-20T07:05:50.400Z,7.50
2017-07-20T07:08:18.965Z,8.50
2017-07-20T07:10:46.701Z,8.40
2017-07-20T07:13:14.444Z,7.80
2017-07-20T07:15:42.221Z,8.00
2017-07-20T07:18:09.966Z,7.23
2017-07-20T07:20:37.775Z,8.53
2017-07-20T07:23:06.285Z,8.27
2017-07-20T07:25:34.028Z,9.43
2017-07-20T07:28:02.565Z,8.77
2017-07-20T07:30:30.307Z,8.30
2017-07-20T07:32:58.136Z,8.37
2017-07-20T07:35:25.877Z,9.23
2017-07-20T07:37:53.624Z,9.47
2017-07-20T07:40:21.425Z,9.80
2017-07-20T07:42:49.160Z,8.10
2017-07-20T07:45:17.728Z,8.90
2017-07-20T07:47:45.463Z,8.27
2017-07-20T07:50:13.204Z,8.10
2017-07-20T07:52:40.990Z,8.60
2017-07-20T07:55:08.739Z,9.17
2017-07-20T07:57:36.538Z,8.20
2017-07-20T08:00:04.280Z,17.20
2017-07-20T08:02:32.039Z,9.23
2017-07-20T08:04:59.807Z,7.20
2017-07-20T08:07:27.547Z,33.07
2017-07-20T08:09:55.353Z,21.80
2017-07-20T08:12:23.859Z,8.77
2017-07-20T08:14:51.604Z,8.50
2017-07-20T08:17:20.131Z,7.60
2017-07-20T08:19:47.867Z,9.33
2017-07-20T08:22:15.690Z,9.00
2017-07-20T08:24:43.463Z,12.33
2017-07-20T08:27:11.975Z,10.20
2017-07-20T08:29:39.748Z,9.23
2017-07-20T08:32:07.498Z,9.97
2017-07-20T08:34:35.295Z,9.77
2017-07-20T08:37:03.088Z,8.83
2017-07-20T08:39:31.595Z,10.07
2017-07-20T08:41:59.380Z,9.93
2017-07-20T08:44:27.123Z,11.60
2017-07-20T08:46:55.623Z,10.53
2017-07-20T08:49:23.368Z,9.40
2017-07-20T08:51:51.112Z,10.87
2017-07-20T08:54:18.890Z,9.90
2017-07-20T08:56:46.636Z,10.23
2017-07-20T08:59:14.451Z,10.17
2017-07-20T09:01:42.199Z,10.17
2017-07-20T09:04:09.976Z,10.65
2017-07-20T09:06:37.762Z,11.68
2017-07-20T09:09:06.276Z,11.23
2017-07-20T09:11:34.093Z,12.30
2017-07-20T09:14:02.608Z,11.90
2017-07-20T09:16:30.370Z,11.65
2017-07-20T09:18:58.151Z,11.43
2017-07-20T09:21:25.907Z,10.68
2017-07-20T09:23:53.718Z,10.65
2017-07-20T09:26:22.233Z,10.70
2017-07-20T09:28:49.977Z,11.73
2017-07-20T09:31:18.524Z,11.25
2017-07-20T09:33:46.271Z,11.93
2017-07-20T09:36:14.068Z,11.50
2017-07-20T09:38:42.588Z,11.12
2017-07-20T09:41:10.340Z,12.15
2017-07-20T09:43:38.137Z,12.55
2017-07-20T09:46:05.882Z,12.35
2017-07-20T09:48:33.663Z,12.70
2017-07-20T09:51:01.412Z,11.48
2017-07-20T09:53:29.225Z,12.05
2017-07-20T09:55:57.753Z,12.98
2017-07-20T09:58:25.491Z,13.95
2017-07-20T10:00:53.284Z,13.40
2017-07-20T10:03:21.035Z,13.95
2017-07-20T10:05:48.833Z,13.32
2017-07-20T10:08:16.575Z,12.55
2017-07-20T10:10:44.320Z,13.40
2017-07-20T10:13:12.096Z,12.43
2017-07-20T10:15:39.843Z,13.93
2017-07-20T10:18:07.649Z,13.40
2017-07-20T10:20:36.159Z,14.23
2017-07-20T10:23:03.904Z,11.43
2017-07-20T10:25:31.688Z,12.80
2017-07-20T10:27:59.431Z,12.57
2017-07-20T10:30:27.229Z,12.75
2017-07-20T10:32:54.972Z,12.60
2017-07-20T10:35:22.720Z,13.27
2017-07-20T10:37:50.509Z,13.85
2017-07-20T10:40:18.253Z,14.35
2017-07-20T10:42:46.052Z,13.32
2017-07-20T10:45:13.802Z,13.15
2017-07-20T10:47:41.548Z,13.43
2017-07-20T10:50:09.331Z,13.57
2017-07-20T10:52:37.073Z,13.80
2017-07-20T10:55:04.879Z,14.23
2017-07-20T10:57:32.634Z,13.65
2017-07-20T11:00:00.380Z,14.00
2017-07-20T11:02:28.172Z,14.02
2017-07-20T11:04:56.687Z,12.65
2017-07-20T11:07:24.487Z,13.57
2017-07-20T11:09:52.226Z,13.02
2017-07-20T11:12:19.984Z,12.65
2017-07-20T11:14:47.763Z,12.55
2017-07-20T11:17:15.513Z,13.13
2017-07-20T11:19:43.322Z,13.02
2017-07-20T11:22:11.836Z,13.48
2017-07-20T11:24:39.596Z,12.63
2017-07-20T11:27:07.376Z,11.52
2017-07-20T11:29:35.115Z,12.00
2017-07-20T11:32:02.919Z,12.98
2017-07-20T11:34:30.660Z,12.70
2017-07-20T11:36:58.399Z,11.30
2017-07-20T11:39:26.180Z,11.68
2017-07-20T11:41:53.925Z,12.02
2017-07-20T11:44:21.738Z,10.98
2017-07-20T11:46:49.482Z,10.27
2017-07-20T11:49:17.231Z,10.52
2017-07-20T11:51:45.033Z,11.70
2017-07-20T11:54:12.785Z,10.70
2017-07-20T11:56:40.623Z,10.85
2017-07-20T11:59:08.395Z,11.15
2017-07-20T12:01:36.160Z,11.27
2017-07-20T12:04:03.947Z,11.63
2017-07-20T12:06:32.469Z,13.07
2017-07-20T12:09:00.283Z,12.43
2017-07-20T12:11:28.032Z,11.90
2017-07-20T12:13:55.788Z,12.32
2017-07-20T12:16:23.571Z,12.05
2017-07-20T12:18:52.079Z,11.23
2017-07-20T12:21:20.194Z,11.50
2017-07-20T12:23:47.939Z,12.25
2017-07-20T12:26:15.687Z,17.62
2017-07-20T12:28:43.464Z,14.90
2017-07-20T12:31:11.205Z,12.88
2017-07-20T12:33:39.018Z,12.48
2017-07-20T12:36:06.761Z,11.95
2017-07-20T12:38:34.565Z,12.35
2017-07-20T12:41:03.104Z,12.35
2017-07-20T12:43:30.851Z,12.55
2017-07-20T12:45:58.648Z,10.20
2017-07-20T12:48:26.392Z,11.20
2017-07-20T12:50:54.131Z,10.65
2017-07-20T12:53:21.907Z,12.15
2017-07-20T12:55:49.660Z,10.18
2017-07-20T12:58:17.463Z,11.65
2017-07-20T13:00:45.978Z,10.77
2017-07-20T13:03:13.733Z,10.10
2017-07-20T13:05:41.524Z,9.23
2017-07-20T13:08:09.291Z,9.85
2017-07-20T13:10:37.123Z,9.63
2017-07-20T13:13:04.884Z,9.23
2017-07-20T13:15:32.660Z,10.15
2017-07-20T13:18:00.464Z,10.60
2017-07-20T13:20:28.231Z,9.63
2017-07-20T13:22:56.822Z,10.27
2017-07-20T13:25:25.364Z,9.35
2017-07-20T13:27:53.131Z,11.75
2017-07-20T13:30:20.928Z,10.52
2017-07-20T13:32:49.488Z,11.27
2017-07-20T13:35:17.321Z,10.60
2017-07-20T13:37:45.101Z,10.70
2017-07-20T13:40:12.878Z,9.93
2017-07-20T13:42:40.687Z,11.82
2017-07-20T13:45:08.470Z,10.35
2017-07-20T13:47:36.302Z,9.57
2017-07-20T13:50:04.138Z,10.02
2017-07-20T13:52:32.671Z,9.60
2017-07-20T13:55:00.475Z,10.13
2017-07-20T13:57:28.285Z,9.40
2017-07-20T13:59:56.106Z,8.57
2017-07-20T14:02:24.626Z,8.43
2017-07-20T14:04:52.374Z,7.22
2017-07-20T14:07:20.158Z,8.23
2017-07-20T14:09:47.906Z,8.63
2017-07-20T14:12:15.725Z,8.15
2017-07-20T14:14:43.481Z,8.10
2017-07-20T14:17:11.235Z,8.95
2017-07-20T14:19:39.022Z,9.82
2017-07-20T14:22:07.581Z,9.82
2017-07-20T14:24:35.390Z,9.38
2017-07-20T14:27:03.147Z,9.27
2017-07-20T14:29:30.905Z,9.43
2017-07-20T14:31:58.691Z,8.20
2017-07-20T14:34:26.448Z,8.45
2017-07-20T14:36:54.282Z,9.32
2017-07-20T14:39:22.040Z,8.25
2017-07-20T14:41:49.794Z,8.90
2017-07-20T14:44:18.363Z,10.00
2017-07-20T14:46:46.182Z,8.90
2017-07-20T14:49:13.993Z,9.20
2017-07-20T14:51:42.523Z,10.18
2017-07-20T14:54:10.282Z,10.73
2017-07-20T14:56:38.077Z,9.00
2017-07-20T14:59:05.829Z,9.40
2017-07-20T15:01:33.650Z,9.30
2017-07-20T15:04:01.405Z,10.80
2017-07-20T15:06:29.192Z,10.70
2017-07-20T15:08:56.981Z,10.50
2017-07-20T15:11:24.732Z,9.88
2017-07-20T15:13:52.557Z,10.27
2017-07-20T15:16:20.314Z,9.73
2017-07-20T15:18:48.086Z,10.13
2017-07-20T15:21:15.878Z,9.75
2017-07-20T15:23:43.638Z,9.57
2017-07-20T15:26:11.452Z,8.77
2017-07-20T15:28:39.974Z,9.25
2017-07-20T15:31:07.730Z,10.55
2017-07-20T15:33:35.562Z,9.70
2017-07-20T15:36:03.321Z,10.93
2017-07-20T15:38:31.137Z,9.85
2017-07-20T15:40:58.910Z,10.43
2017-07-20T15:43:26.710Z,10.13
2017-07-20T15:45:54.498Z,11.30
2017-07-20T15:48:22.253Z,12.35
2017-07-20T15:50:50.074Z,10.68
2017-07-20T15:53:18.597Z,11.85
2017-07-20T15:55:46.355Z,11.80
2017-07-20T15:58:14.138Z,11.43
2017-07-20T16:00:41.902Z,10.95
2017-07-20T16:03:09.732Z,11.50
2017-07-20T16:05:37.500Z,10.98
2017-07-20T16:08:05.266Z,14.68
2017-07-20T16:10:33.066Z,10.98
2017-07-20T16:13:00.823Z,11.07
2017-07-20T16:15:28.649Z,10.63
2017-07-20T16:17:56.406Z,11.25
2017-07-20T16:20:24.167Z,11.15
2017-07-20T16:22:51.980Z,11.25
2017-07-20T16:25:19.747Z,13.25
2017-07-20T16:27:47.570Z,10.52
2017-07-20T16:30:15.331Z,11.57
2017-07-20T16:32:43.136Z,10.85
2017-07-20T16:35:10.926Z,12.32
2017-07-20T16:37:38.684Z,11.10
2017-07-20T16:40:07.278Z,10.73
2017-07-20T16:42:35.050Z,10.00
2017-07-20T16:45:02.816Z,13.07
2017-07-20T16:47:30.614Z,11.98
2017-07-20T16:49:58.391Z,11.85
2017-07-20T16:52:26.212Z,11.82
2017-07-20T16:54:53.974Z,12.00
2017-07-20T16:57:21.729Z,11.93
2017-07-20T16:59:49.515Z,11.73
2017-07-20T17:02:17.275Z,12.25
2017-07-20T17:04:45.098Z,12.20
2017-07-20T17:07:12.877Z,12.25
2017-07-20T17:09:40.630Z,10.68
2017-07-20T17:12:08.423Z,11.88
2017-07-20T17:14:36.191Z,12.55
2017-07-20T17:17:04.018Z,11.63
2017-07-20T17:19:31.778Z,11.73
2017-07-20T17:21:59.534Z,12.02
2017-07-20T17:24:27.330Z,12.48
2017-07-20T17:26:55.091Z,12.32
2017-07-20T17:29:22.926Z,12.10
2017-07-20T17:31:50.686Z,13.68
2017-07-20T17:34:18.482Z,13.35
2017-07-20T17:36:46.276Z,11.93
2017-07-20T17:39:14.083Z,12.35
2017-07-20T17:41:42.090Z,12.40
2017-07-20T17:44:09.874Z,12.37
2017-07-20T17:46:38.404Z,12.20
2017-07-20T17:49:06.201Z,12.02
2017-07-20T17:51:33.970Z,12.35
2017-07-20T17:54:02.551Z,12.63
2017-07-20T17:56:30.315Z,12.60
2017-07-20T17:58:58.080Z,13.13
2017-07-20T18:01:26.634Z,12.82
2017-07-20T18:03:54.423Z,14.05
2017-07-20T18:06:22.247Z,13.38
2017-07-20T18:08:50.006Z,13.05
2017-07-20T18:11:17.786Z,12.55
2017-07-20T18:13:45.579Z,13.55
2017-07-20T18:16:13.341Z,12.73
2017-07-20T18:18:41.168Z,15.15
2017-07-20T18:21:08.930Z,14.80
2017-07-20T18:23:36.690Z,14.73
2017-07-20T18:26:04.514Z,13.82
2017-07-20T18:28:32.290Z,13.57
2017-07-20T18:31:00.111Z,14.00
2017-07-20T18:33:28.649Z,13.73
2017-07-20T18:35:56.414Z,13.32
2017-07-20T18:38:24.202Z,13.48
2017-07-20T18:40:52.783Z,13.45
2017-07-20T18:43:21.379Z,13.68
2017-07-20T18:45:49.175Z,13.45
2017-07-20T18:48:16.940Z,12.63
2017-07-20T18:50:44.730Z,11.75
2017-07-20T18:53:12.491Z,12.50
2017-07-20T18:55:40.317Z,11.43
2017-07-20T18:58:08.073Z,9.93
2017-07-20T19:00:35.832Z,9.82
2017-07-20T19:03:03.622Z,11.45
2017-07-20T19:05:31.382Z,9.93
2017-07-20T19:07:59.205Z,11.57
2017-07-20T19:10:26.970Z,11.32
2017-07-20T19:12:54.737Z,10.20
2017-07-20T19:15:22.525Z,9.32
2017-07-20T19:17:50.285Z,9.90
2017-07-20T19:20:18.102Z,10.10
2017-07-20T19:22:46.617Z,8.88
2017-07-20T19:25:14.366Z,8.73
2017-07-20T19:27:42.157Z,9.70
2017-07-20T19:30:09.914Z,8.20
2017-07-20T19:32:37.725Z,9.85
2017-07-20T19:35:06.255Z,9.55
2017-07-20T19:37:34.029Z,10.48
2017-07-20T19:40:01.822Z,9.98
2017-07-20T19:42:30.351Z,9.02
2017-07-20T19:44:58.173Z,10.73
2017-07-20T19:47:26.746Z,9.80
2017-07-20T19:49:55.266Z,9.93
2017-07-20T19:52:23.056Z,10.90
2017-07-20T19:54:50.814Z,9.88
2017-07-20T19:57:18.653Z,10.10
2017-07-20T19:59:46.409Z,10.82
2017-07-20T20:02:14.171Z,11.40
2017-07-20T20:04:41.958Z,11.25
2017-07-20T20:07:09.717Z,10.40
2017-07-20T20:09:37.538Z,12.32
2017-07-20T20:12:05.294Z,9.52
2017-07-20T20:14:33.053Z,10.70
2017-07-20T20:17:01.662Z,10.65
2017-07-20T20:19:29.424Z,11.40
2017-07-20T20:21:57.246Z,11.85
2017-07-20T20:24:25.777Z,11.35
2017-07-20T20:26:53.557Z,11.50
2017-07-20T20:29:21.343Z,12.20
2017-07-20T20:31:49.873Z,11.75
2017-07-20T20:34:17.698Z,10.30
2017-07-20T20:36:45.466Z,12.43
2017-07-20T20:39:13.990Z,13.15
2017-07-20T20:41:41.852Z,13.68
2017-07-20T20:44:09.614Z,12.85
2017-07-20T20:46:37.433Z,13.43
2017-07-20T20:49:05.962Z,13.18
2017-07-20T20:51:33.727Z,10.82
2017-07-20T20:54:01.521Z,11.35
2017-07-20T20:56:30.052Z,11.05
2017-07-20T20:58:57.872Z,12.18
2017-07-20T21:01:26.415Z,12.32
2017-07-20T21:03:54.174Z,11.65
2017-07-20T21:06:22.277Z,13.25
2017-07-20T21:08:50.808Z,12.27
2017-07-20T21:11:18.624Z,14.32
2017-07-20T21:13:47.158Z,13.80
2017-07-20T21:16:14.922Z,12.75
2017-07-20T21:18:42.720Z,12.35
2017-07-20T21:21:11.247Z,12.65
2017-07-20T21:23:39.065Z,12.20
2017-07-20T21:26:07.591Z,13.00
2017-07-20T21:28:35.357Z,13.20
2017-07-20T21:31:03.152Z,12.95
2017-07-20T21:33:30.917Z,11.75
2017-07-20T21:35:58.861Z,12.37
2017-07-20T21:38:26.625Z,12.80
2017-07-20T21:40:54.385Z,11.80
2017-07-20T21:43:22.174Z,12.05
2017-07-20T21:45:49.930Z,13.32
2017-07-20T21:48:17.760Z,12.43
2017-07-20T21:50:45.518Z,11.80
2017-07-20T21:53:13.285Z,11.88
2017-07-20T21:55:41.076Z,11.68
2017-07-20T21:58:08.838Z,10.55
2017-07-20T22:00:36.658Z,12.07
2017-07-20T22:03:04.414Z,12.30
2017-07-20T22:05:32.174Z,12.82
2017-07-20T22:07:59.970Z,11.68
2017-07-20T22:10:27.730Z,12.18
2017-07-20T22:12:55.546Z,10.05
2017-07-20T22:15:23.324Z,9.93
2017-07-20T22:17:51.081Z,10.85
2017-07-20T22:20:19.782Z,9.52
2017-07-20T22:22:48.117Z,8.65
2017-07-20T22:25:17.330Z,8.65
2017-07-20T22:27:45.094Z,9.02
2017-07-20T22:30:12.842Z,8.32
2017-07-20T22:32:40.630Z,8.32
2017-07-20T22:35:08.385Z,7.35
2017-07-20T22:37:36.231Z,8.30
2017-07-20T22:40:03.978Z,7.65
2017-07-20T22:42:32.498Z,7.87
2017-07-20T22:45:00.285Z,7.57
2017-07-20T22:47:28.032Z,7.78
2017-07-20T22:49:55.845Z,7.20
2017-07-20T22:52:23.604Z,6.85
2017-07-20T22:54:51.391Z,6.03
2017-07-20T22:57:19.203Z,6.18
2017-07-20T22:59:46.955Z,8.32
2017-07-20T23:02:14.762Z,8.13
2017-07-20T23:04:42.520Z,7.75
2017-07-20T23:07:10.273Z,7.55
2017-07-20T23:09:39.003Z,8.18
2017-07-20T23:12:06.758Z,9.00
2017-07-20T23:14:34.578Z,8.88
2017-07-20T23:17:03.098Z,8.27
2017-07-20T23:19:30.858Z,8.38
2017-07-20T23:21:58.640Z,8.82
2017-07-20T23:24:26.393Z,8.07
2017-07-20T23:26:54.200Z,8.02
2017-07-20T23:29:22.713Z,8.20
2017-07-20T23:31:50.465Z,8.52
2017-07-20T23:34:18.278Z,7.75
2017-07-20T23:36:46.051Z,8.50
2017-07-20T23:39:13.886Z,9.63
2017-07-20T23:41:41.679Z,8.65
2017-07-20T23:44:09.497Z,9.90
2017-07-20T23:46:37.294Z,7.55
2017-07-20T23:49:05.046Z,8.70
2017-07-20T23:51:32.865Z,8.50
2017-07-20T23:54:00.618Z,7.85
2017-07-20T23:56:28.381Z,8.85
2017-07-20T23:58:56.163Z,8.75
